Airfield :
LOGIN :

Register | Disclaimer

   EN    FR    IT 

 










Legend :    VFR   Marginal VFR   IFR   Intensive IFR   Very Intensive IFR
Visi :
Ceiling :
>= 8 km
>= 3000ft
5 to 8 km
1000 to 3000 ft
1500m to 5 km
500 to 1000 ft
800 to 1500m
200 to 500 ft
< 800m
< 200 ft
Symbols :   Thunderstorms  Fog  Heavy snow  Heavy precipitations  Wind > 20 kt
SIGMETs :     Misc.  Thunderstorms  Icing  Turbulence  Mountain Waves  Volcanic Ashes






- Airport Elevation : 333 ft


LIPL - Ghedi Brescia (Mil)

CURRENT METAR :
  • 121255Z 28006KT 3500 -RA BR SCT005 SCT022 10/07 Q0999 RMK OVC VIS MIN 3500 WIND THR31 28007KT WIND THR13 27006KT YLO

EXPIRED METARs :
  • 121155Z 27004KT 3500 -RA BR FEW004 SCT006 10/07 Q1001 RMK OVC VIS MIN 3500 WIND THR31 25005KT WIND THR13 25004KT YLO
  • 121055Z 27004KT 3000 -RA BR SCT005 SCT030 09/06 Q1001 RMK OVC VIS MIN 3000 WIND THR31 26006KT WIND THR13 25005KT YLO

TAF TAF LIPL
Valid from the 12 at 12:00 until the 12 at 21:00 UTC


121100Z 1212/1221 30008KT 3000 RA BR SCT010 SCT025 BKN060
TEMPO 1212/1215 5000 BR
BECMG 1216/1218 2000 RA BR SCT010 BKN020 BKN050



MET'MAP, your aeronautical weather chart ! - Copyright ORBIFLY December 2007 - Disclaimer

ORBIFLY MET'MAP TEAM :

Programming & Development : Alexandra Zaïnal
Concept & Development : Baudouin d'Aumeries
Co-Development & Prog : Marc-Olivier Méhu
Technical & hardware support : Manuel Goepfert

Contact : metmap@orbifly.com




SOURCES & CREDITS :

   NOAA